sensor_id;sensor_type;location;lat;lon;timestamp;temperature;humidity
42973;DHT22;28610;51.214;6.962;2022-08-25T00:01:41;25.40;34.70
42973;DHT22;28610;51.214;6.962;2022-08-25T00:04:27;25.30;34.80
42973;DHT22;28610;51.214;6.962;2022-08-25T00:07:13;25.20;34.90
42973;DHT22;28610;51.214;6.962;2022-08-25T00:09:58;25.20;34.90
42973;DHT22;28610;51.214;6.962;2022-08-25T00:12:44;25.20;35.30
42973;DHT22;28610;51.214;6.962;2022-08-25T00:15:31;25.10;35.30
42973;DHT22;28610;51.214;6.962;2022-08-25T00:18:16;25.10;35.40
42973;DHT22;28610;51.214;6.962;2022-08-25T00:21:02;25.10;35.60
42973;DHT22;28610;51.214;6.962;2022-08-25T00:23:48;25.00;35.80
42973;DHT22;28610;51.214;6.962;2022-08-25T00:26:37;25.00;35.60
42973;DHT22;28610;51.214;6.962;2022-08-25T00:29:24;25.00;35.80
42973;DHT22;28610;51.214;6.962;2022-08-25T00:32:11;24.90;35.80
42973;DHT22;28610;51.214;6.962;2022-08-25T00:34:57;24.80;36.10
42973;DHT22;28610;51.214;6.962;2022-08-25T00:37:43;24.80;36.10
42973;DHT22;28610;51.214;6.962;2022-08-25T00:40:29;24.80;36.30
42973;DHT22;28610;51.214;6.962;2022-08-25T00:43:16;24.70;36.70
42973;DHT22;28610;51.214;6.962;2022-08-25T00:46:03;24.60;37.10
42973;DHT22;28610;51.214;6.962;2022-08-25T00:48:54;24.60;37.20
42973;DHT22;28610;51.214;6.962;2022-08-25T00:51:45;24.60;37.30
42973;DHT22;28610;51.214;6.962;2022-08-25T00:54:34;24.50;38.00
42973;DHT22;28610;51.214;6.962;2022-08-25T00:57:25;24.40;37.90
42973;DHT22;28610;51.214;6.962;2022-08-25T01:00:16;24.40;38.10
42973;DHT22;28610;51.214;6.962;2022-08-25T01:03:03;24.30;38.70
42973;DHT22;28610;51.214;6.962;2022-08-25T01:05:50;24.40;38.10
42973;DHT22;28610;51.214;6.962;2022-08-25T01:08:36;24.40;38.60
42973;DHT22;28610;51.214;6.962;2022-08-25T01:11:22;24.30;38.60
42973;DHT22;28610;51.214;6.962;2022-08-25T01:14:08;24.30;38.90
42973;DHT22;28610;51.214;6.962;2022-08-25T01:16:55;24.10;39.50
42973;DHT22;28610;51.214;6.962;2022-08-25T01:19:41;24.10;40.00
42973;DHT22;28610;51.214;6.962;2022-08-25T01:22:28;24.10;39.20
42973;DHT22;28610;51.214;6.962;2022-08-25T01:25:24;24.00;40.30
42973;DHT22;28610;51.214;6.962;2022-08-25T01:28:13;23.90;40.60
42973;DHT22;28610;51.214;6.962;2022-08-25T01:30:59;23.90;40.70
42973;DHT22;28610;51.214;6.962;2022-08-25T01:33:44;23.90;40.30
42973;DHT22;28610;51.214;6.962;2022-08-25T01:36:30;23.90;40.80
42973;DHT22;28610;51.214;6.962;2022-08-25T01:39:17;23.80;41.50
42973;DHT22;28610;51.214;6.962;2022-08-25T01:42:17;23.80;41.10
42973;DHT22;28610;51.214;6.962;2022-08-25T01:45:04;23.70;41.10
42973;DHT22;28610;51.214;6.962;2022-08-25T01:47:50;23.70;41.60
42973;DHT22;28610;51.214;6.962;2022-08-25T01:50:36;23.70;41.60
42973;DHT22;28610;51.214;6.962;2022-08-25T01:53:23;23.60;42.00
42973;DHT22;28610;51.214;6.962;2022-08-25T01:56:14;23.60;42.20
42973;DHT22;28610;51.214;6.962;2022-08-25T01:58:59;23.60;42.50
42973;DHT22;28610;51.214;6.962;2022-08-25T02:01:45;23.50;42.60
42973;DHT22;28610;51.214;6.962;2022-08-25T02:04:30;23.40;42.90
42973;DHT22;28610;51.214;6.962;2022-08-25T02:07:16;23.40;43.40
42973;DHT22;28610;51.214;6.962;2022-08-25T02:10:03;23.30;43.70
42973;DHT22;28610;51.214;6.962;2022-08-25T02:12:50;23.30;43.90
42973;DHT22;28610;51.214;6.962;2022-08-25T02:15:40;23.30;43.70
42973;DHT22;28610;51.214;6.962;2022-08-25T02:18:26;23.20;44.70
42973;DHT22;28610;51.214;6.962;2022-08-25T02:21:11;23.10;44.90
42973;DHT22;28610;51.214;6.962;2022-08-25T02:23:57;23.00;44.90
42973;DHT22;28610;51.214;6.962;2022-08-25T02:26:42;23.10;45.50
42973;DHT22;28610;51.214;6.962;2022-08-25T02:29:29;23.00;45.80
42973;DHT22;28610;51.214;6.962;2022-08-25T02:32:15;23.00;45.60
42973;DHT22;28610;51.214;6.962;2022-08-25T02:35:00;23.00;46.00
42973;DHT22;28610;51.214;6.962;2022-08-25T02:37:45;23.00;45.80
42973;DHT22;28610;51.214;6.962;2022-08-25T02:40:31;22.90;45.90
42973;DHT22;28610;51.214;6.962;2022-08-25T02:43:16;22.90;46.20
42973;DHT22;28610;51.214;6.962;2022-08-25T02:46:03;23.00;46.30
42973;DHT22;28610;51.214;6.962;2022-08-25T02:48:50;22.90;46.70
42973;DHT22;28610;51.214;6.962;2022-08-25T02:51:36;22.90;46.70
42973;DHT22;28610;51.214;6.962;2022-08-25T02:54:21;22.90;46.60
42973;DHT22;28610;51.214;6.962;2022-08-25T02:57:07;22.90;46.80
42973;DHT22;28610;51.214;6.962;2022-08-25T02:59:53;22.90;46.70
42973;DHT22;28610;51.214;6.962;2022-08-25T03:02:40;23.00;46.20
42973;DHT22;28610;51.214;6.962;2022-08-25T03:05:26;23.00;46.30
42973;DHT22;28610;51.214;6.962;2022-08-25T03:08:11;23.00;46.20
42973;DHT22;28610;51.214;6.962;2022-08-25T03:10:56;23.00;46.40
42973;DHT22;28610;51.214;6.962;2022-08-25T03:13:42;23.00;46.40
42973;DHT22;28610;51.214;6.962;2022-08-25T03:16:27;23.00;46.60
42973;DHT22;28610;51.214;6.962;2022-08-25T03:19:14;23.00;46.70
42973;DHT22;28610;51.214;6.962;2022-08-25T03:22:01;23.00;46.70
42973;DHT22;28610;51.214;6.962;2022-08-25T03:24:46;23.00;47.10
42973;DHT22;28610;51.214;6.962;2022-08-25T03:27:32;23.00;46.90
42973;DHT22;28610;51.214;6.962;2022-08-25T03:30:16;23.00;47.00
42973;DHT22;28610;51.214;6.962;2022-08-25T03:33:02;23.00;47.60
42973;DHT22;28610;51.214;6.962;2022-08-25T03:35:48;23.00;47.80
42973;DHT22;28610;51.214;6.962;2022-08-25T03:38:34;23.00;47.90
42973;DHT22;28610;51.214;6.962;2022-08-25T03:41:22;22.90;48.00
42973;DHT22;28610;51.214;6.962;2022-08-25T03:44:09;22.90;48.50
42973;DHT22;28610;51.214;6.962;2022-08-25T03:46:54;22.90;48.50
42973;DHT22;28610;51.214;6.962;2022-08-25T03:49:40;22.80;48.70
42973;DHT22;28610;51.214;6.962;2022-08-25T03:52:26;22.80;49.10
42973;DHT22;28610;51.214;6.962;2022-08-25T03:55:12;22.80;49.30
42973;DHT22;28610;51.214;6.962;2022-08-25T03:57:58;22.80;49.60
42973;DHT22;28610;51.214;6.962;2022-08-25T04:00:44;22.80;50.00
42973;DHT22;28610;51.214;6.962;2022-08-25T04:03:29;22.80;50.20
42973;DHT22;28610;51.214;6.962;2022-08-25T04:06:16;22.70;50.60
42973;DHT22;28610;51.214;6.962;2022-08-25T04:09:04;22.70;50.70
42973;DHT22;28610;51.214;6.962;2022-08-25T04:11:49;22.80;51.00
42973;DHT22;28610;51.214;6.962;2022-08-25T04:14:35;22.70;51.00
42973;DHT22;28610;51.214;6.962;2022-08-25T04:17:21;22.70;51.00
42973;DHT22;28610;51.214;6.962;2022-08-25T04:20:07;22.70;51.40
42973;DHT22;28610;51.214;6.962;2022-08-25T04:22:54;22.60;51.70
42973;DHT22;28610;51.214;6.962;2022-08-25T04:25:45;22.60;51.80
42973;DHT22;28610;51.214;6.962;2022-08-25T04:28:30;22.60;52.30
42973;DHT22;28610;51.214;6.962;2022-08-25T04:31:17;22.60;52.30
42973;DHT22;28610;51.214;6.962;2022-08-25T04:34:03;22.50;52.60
42973;DHT22;28610;51.214;6.962;2022-08-25T04:36:49;22.50;52.90
42973;DHT22;28610;51.214;6.962;2022-08-25T04:39:35;22.50;52.70
42973;DHT22;28610;51.214;6.962;2022-08-25T04:42:22;22.50;53.10
42973;DHT22;28610;51.214;6.962;2022-08-25T04:45:09;22.50;53.10
42973;DHT22;28610;51.214;6.962;2022-08-25T04:47:55;22.40;53.70
42973;DHT22;28610;51.214;6.962;2022-08-25T04:50:44;22.40;53.70
42973;DHT22;28610;51.214;6.962;2022-08-25T04:53:31;22.40;53.60
42973;DHT22;28610;51.214;6.962;2022-08-25T04:56:17;22.40;53.90
42973;DHT22;28610;51.214;6.962;2022-08-25T04:59:07;22.40;53.90
42973;DHT22;28610;51.214;6.962;2022-08-25T05:01:53;22.50;54.00
42973;DHT22;28610;51.214;6.962;2022-08-25T05:04:38;22.40;54.30
42973;DHT22;28610;51.214;6.962;2022-08-25T05:07:23;22.50;54.50
42973;DHT22;28610;51.214;6.962;2022-08-25T05:10:09;22.40;54.30
42973;DHT22;28610;51.214;6.962;2022-08-25T05:12:54;22.50;54.40
42973;DHT22;28610;51.214;6.962;2022-08-25T05:15:41;22.50;54.40
42973;DHT22;28610;51.214;6.962;2022-08-25T05:18:35;22.60;54.50
42973;DHT22;28610;51.214;6.962;2022-08-25T05:21:22;22.60;54.50
42973;DHT22;28610;51.214;6.962;2022-08-25T05:24:08;22.70;54.20
42973;DHT22;28610;51.214;6.962;2022-08-25T05:26:54;22.80;54.10
42973;DHT22;28610;51.214;6.962;2022-08-25T05:29:39;22.80;54.20
42973;DHT22;28610;51.214;6.962;2022-08-25T05:32:26;22.80;54.10
42973;DHT22;28610;51.214;6.962;2022-08-25T05:35:12;22.90;54.20
42973;DHT22;28610;51.214;6.962;2022-08-25T05:37:57;22.90;53.80
42973;DHT22;28610;51.214;6.962;2022-08-25T05:40:42;23.00;54.50
42973;DHT22;28610;51.214;6.962;2022-08-25T05:43:28;23.00;54.40
42973;DHT22;28610;51.214;6.962;2022-08-25T05:46:15;23.10;53.80
42973;DHT22;28610;51.214;6.962;2022-08-25T05:49:01;23.20;53.60
42973;DHT22;28610;51.214;6.962;2022-08-25T05:51:47;23.30;53.90
42973;DHT22;28610;51.214;6.962;2022-08-25T05:54:32;23.40;53.40
42973;DHT22;28610;51.214;6.962;2022-08-25T05:57:18;23.40;53.90
42973;DHT22;28610;51.214;6.962;2022-08-25T06:00:05;23.50;53.40
42973;DHT22;28610;51.214;6.962;2022-08-25T06:02:51;23.50;53.60
42973;DHT22;28610;51.214;6.962;2022-08-25T06:05:37;23.50;53.20
42973;DHT22;28610;51.214;6.962;2022-08-25T06:08:22;23.60;54.00
42973;DHT22;28610;51.214;6.962;2022-08-25T06:11:13;23.60;54.10
42973;DHT22;28610;51.214;6.962;2022-08-25T06:13:59;23.70;53.40
42973;DHT22;28610;51.214;6.962;2022-08-25T06:16:45;23.70;53.70
42973;DHT22;28610;51.214;6.962;2022-08-25T06:19:31;23.80;53.60
42973;DHT22;28610;51.214;6.962;2022-08-25T06:22:18;23.90;52.70
42973;DHT22;28610;51.214;6.962;2022-08-25T06:25:05;24.20;52.10
42973;DHT22;28610;51.214;6.962;2022-08-25T06:27:50;24.20;51.50
42973;DHT22;28610;51.214;6.962;2022-08-25T06:30:38;24.20;51.80
42973;DHT22;28610;51.214;6.962;2022-08-25T06:33:23;24.20;51.50
42973;DHT22;28610;51.214;6.962;2022-08-25T06:36:09;24.20;51.50
42973;DHT22;28610;51.214;6.962;2022-08-25T06:38:56;24.30;50.70
42973;DHT22;28610;51.214;6.962;2022-08-25T06:41:41;24.40;50.60
42973;DHT22;28610;51.214;6.962;2022-08-25T06:44:27;24.40;50.80
42973;DHT22;28610;51.214;6.962;2022-08-25T06:47:13;24.60;50.20
42973;DHT22;28610;51.214;6.962;2022-08-25T06:49:58;24.60;50.10
42973;DHT22;28610;51.214;6.962;2022-08-25T06:52:44;24.80;49.10
42973;DHT22;28610;51.214;6.962;2022-08-25T06:55:31;25.00;48.60
42973;DHT22;28610;51.214;6.962;2022-08-25T06:58:18;26.60;45.00
42973;DHT22;28610;51.214;6.962;2022-08-25T07:01:07;28.00;40.20
42973;DHT22;28610;51.214;6.962;2022-08-25T07:03:55;29.40;37.60
42973;DHT22;28610;51.214;6.962;2022-08-25T07:06:42;29.90;35.00
42973;DHT22;28610;51.214;6.962;2022-08-25T07:09:27;31.00;33.60
42973;DHT22;28610;51.214;6.962;2022-08-25T07:12:14;31.40;31.80
42973;DHT22;28610;51.214;6.962;2022-08-25T07:14:59;31.60;31.30
42973;DHT22;28610;51.214;6.962;2022-08-25T07:17:45;32.10;30.20
42973;DHT22;28610;51.214;6.962;2022-08-25T07:20:32;32.40;29.90
42973;DHT22;28610;51.214;6.962;2022-08-25T07:23:17;32.80;29.30
42973;DHT22;28610;51.214;6.962;2022-08-25T07:26:08;32.60;28.90
42973;DHT22;28610;51.214;6.962;2022-08-25T07:28:55;33.10;27.90
42973;DHT22;28610;51.214;6.962;2022-08-25T07:31:41;33.70;27.30
42973;DHT22;28610;51.214;6.962;2022-08-25T07:34:26;34.30;27.10
42973;DHT22;28610;51.214;6.962;2022-08-25T07:37:29;34.20;26.80
42973;DHT22;28610;51.214;6.962;2022-08-25T07:40:17;33.90;26.60
42973;DHT22;28610;51.214;6.962;2022-08-25T07:43:05;35.00;26.40
42973;DHT22;28610;51.214;6.962;2022-08-25T07:45:53;35.20;25.80
42973;DHT22;28610;51.214;6.962;2022-08-25T07:48:38;35.60;25.50
42973;DHT22;28610;51.214;6.962;2022-08-25T07:51:24;35.90;24.60
42973;DHT22;28610;51.214;6.962;2022-08-25T07:54:09;36.00;24.60
42973;DHT22;28610;51.214;6.962;2022-08-25T07:56:55;36.00;24.30
42973;DHT22;28610;51.214;6.962;2022-08-25T07:59:41;35.40;25.00
42973;DHT22;28610;51.214;6.962;2022-08-25T08:02:28;33.50;27.50
42973;DHT22;28610;51.214;6.962;2022-08-25T08:05:14;32.90;28.80
42973;DHT22;28610;51.214;6.962;2022-08-25T08:08:00;32.40;29.80
42973;DHT22;28610;51.214;6.962;2022-08-25T08:10:45;31.70;31.10
42973;DHT22;28610;51.214;6.962;2022-08-25T08:13:31;31.00;32.20
42973;DHT22;28610;51.214;6.962;2022-08-25T08:16:18;30.50;33.30
42973;DHT22;28610;51.214;6.962;2022-08-25T08:19:04;30.50;34.00
42973;DHT22;28610;51.214;6.962;2022-08-25T08:21:50;30.10;34.50
42973;DHT22;28610;51.214;6.962;2022-08-25T08:24:36;30.00;34.70
42973;DHT22;28610;51.214;6.962;2022-08-25T08:27:22;29.70;35.10
42973;DHT22;28610;51.214;6.962;2022-08-25T08:30:09;29.60;35.90
42973;DHT22;28610;51.214;6.962;2022-08-25T08:32:54;29.60;36.10
42973;DHT22;28610;51.214;6.962;2022-08-25T08:35:41;29.50;36.30
42973;DHT22;28610;51.214;6.962;2022-08-25T08:38:27;29.50;36.60
42973;DHT22;28610;51.214;6.962;2022-08-25T08:41:27;30.10;35.10
42973;DHT22;28610;51.214;6.962;2022-08-25T08:44:41;30.60;33.70
42973;DHT22;28610;51.214;6.962;2022-08-25T08:47:40;31.00;32.80
42973;DHT22;28610;51.214;6.962;2022-08-25T08:50:31;30.90;32.30
42973;DHT22;28610;51.214;6.962;2022-08-25T08:53:24;30.40;33.80
42973;DHT22;28610;51.214;6.962;2022-08-25T08:56:14;30.10;35.30
42973;DHT22;28610;51.214;6.962;2022-08-25T08:59:03;30.00;35.20
42973;DHT22;28610;51.214;6.962;2022-08-25T09:01:51;29.70;35.70
42973;DHT22;28610;51.214;6.962;2022-08-25T09:04:44;29.60;36.00
42973;DHT22;28610;51.214;6.962;2022-08-25T09:07:33;29.70;36.60
42973;DHT22;28610;51.214;6.962;2022-08-25T09:10:22;29.60;36.40
42973;DHT22;28610;51.214;6.962;2022-08-25T09:13:14;30.00;35.70
42973;DHT22;28610;51.214;6.962;2022-08-25T09:16:07;30.30;35.00
42973;DHT22;28610;51.214;6.962;2022-08-25T09:22:35;30.50;34.90
42973;DHT22;28610;51.214;6.962;2022-08-25T09:25:32;30.50;34.30
42973;DHT22;28610;51.214;6.962;2022-08-25T09:28:27;30.40;34.20
42973;DHT22;28610;51.214;6.962;2022-08-25T09:31:18;31.10;33.00
42973;DHT22;28610;51.214;6.962;2022-08-25T09:34:05;30.90;33.20
42973;DHT22;28610;51.214;6.962;2022-08-25T09:36:51;30.70;34.30
42973;DHT22;28610;51.214;6.962;2022-08-25T09:39:36;30.60;33.80
42973;DHT22;28610;51.214;6.962;2022-08-25T09:42:47;30.70;32.10
42973;DHT22;28610;51.214;6.962;2022-08-25T09:45:38;32.50;29.90
42973;DHT22;28610;51.214;6.962;2022-08-25T09:48:27;34.50;27.60
42973;DHT22;28610;51.214;6.962;2022-08-25T09:51:21;35.30;25.80
42973;DHT22;28610;51.214;6.962;2022-08-25T09:54:17;34.70;26.60
42973;DHT22;28610;51.214;6.962;2022-08-25T09:57:03;35.30;26.20
42973;DHT22;28610;51.214;6.962;2022-08-25T09:59:50;36.20;25.30
42973;DHT22;28610;51.214;6.962;2022-08-25T10:02:35;36.90;23.70
42973;DHT22;28610;51.214;6.962;2022-08-25T10:05:24;37.80;22.80
42973;DHT22;28610;51.214;6.962;2022-08-25T10:08:12;38.00;22.20
42973;DHT22;28610;51.214;6.962;2022-08-25T10:11:00;37.80;22.30
42973;DHT22;28610;51.214;6.962;2022-08-25T10:13:48;38.40;21.60
42973;DHT22;28610;51.214;6.962;2022-08-25T10:16:35;38.70;21.30
42973;DHT22;28610;51.214;6.962;2022-08-25T10:19:26;38.10;21.00
42973;DHT22;28610;51.214;6.962;2022-08-25T10:22:21;38.10;21.30
42973;DHT22;28610;51.214;6.962;2022-08-25T10:25:09;38.60;20.40
42973;DHT22;28610;51.214;6.962;2022-08-25T10:28:06;39.40;20.10
42973;DHT22;28610;51.214;6.962;2022-08-25T10:31:01;40.10;19.90
42973;DHT22;28610;51.214;6.962;2022-08-25T10:34:05;39.20;20.10
42973;DHT22;28610;51.214;6.962;2022-08-25T10:36:58;39.40;19.90
42973;DHT22;28610;51.214;6.962;2022-08-25T10:39:57;38.20;20.50
42973;DHT22;28610;51.214;6.962;2022-08-25T10:42:56;38.80;20.10
42973;DHT22;28610;51.214;6.962;2022-08-25T10:45:47;39.50;19.70
42973;DHT22;28610;51.214;6.962;2022-08-25T10:48:53;37.60;22.10
42973;DHT22;28610;51.214;6.962;2022-08-25T10:51:56;35.90;23.90
42973;DHT22;28610;51.214;6.962;2022-08-25T10:54:48;35.10;25.50
42973;DHT22;28610;51.214;6.962;2022-08-25T10:57:44;34.60;25.70
42973;DHT22;28610;51.214;6.962;2022-08-25T11:00:36;34.60;26.20
42973;DHT22;28610;51.214;6.962;2022-08-25T11:03:41;34.50;26.30
42973;DHT22;28610;51.214;6.962;2022-08-25T11:06:36;33.80;27.00
42973;DHT22;28610;51.214;6.962;2022-08-25T11:09:28;34.40;27.20
42973;DHT22;28610;51.214;6.962;2022-08-25T11:12:18;34.50;26.80
42973;DHT22;28610;51.214;6.962;2022-08-25T11:15:08;34.30;26.00
42973;DHT22;28610;51.214;6.962;2022-08-25T11:17:58;34.40;24.90
42973;DHT22;28610;51.214;6.962;2022-08-25T11:20:55;34.20;25.70
42973;DHT22;28610;51.214;6.962;2022-08-25T11:23:48;34.10;26.30
42973;DHT22;28610;51.214;6.962;2022-08-25T11:26:37;34.00;26.70
42973;DHT22;28610;51.214;6.962;2022-08-25T11:29:27;33.40;26.90
42973;DHT22;28610;51.214;6.962;2022-08-25T11:32:18;33.30;27.60
42973;DHT22;28610;51.214;6.962;2022-08-25T11:35:09;33.70;27.40
42973;DHT22;28610;51.214;6.962;2022-08-25T11:38:18;33.60;27.50
42973;DHT22;28610;51.214;6.962;2022-08-25T11:41:14;33.20;27.50
42973;DHT22;28610;51.214;6.962;2022-08-25T11:44:18;33.40;27.50
42973;DHT22;28610;51.214;6.962;2022-08-25T11:47:19;33.50;26.60
42973;DHT22;28610;51.214;6.962;2022-08-25T11:50:25;33.80;26.70
42973;DHT22;28610;51.214;6.962;2022-08-25T11:53:18;33.80;26.40
42973;DHT22;28610;51.214;6.962;2022-08-25T11:56:08;33.60;27.20
42973;DHT22;28610;51.214;6.962;2022-08-25T11:58:55;33.40;28.30
42973;DHT22;28610;51.214;6.962;2022-08-25T12:02:17;33.50;28.20
42973;DHT22;28610;51.214;6.962;2022-08-25T12:08:48;33.30;26.30
42973;DHT22;28610;51.214;6.962;2022-08-25T12:11:46;33.20;26.70
42973;DHT22;28610;51.214;6.962;2022-08-25T12:14:43;33.30;26.60
42973;DHT22;28610;51.214;6.962;2022-08-25T12:17:37;33.20;27.50
42973;DHT22;28610;51.214;6.962;2022-08-25T12:24:14;33.70;27.10
42973;DHT22;28610;51.214;6.962;2022-08-25T12:27:02;33.70;27.00
42973;DHT22;28610;51.214;6.962;2022-08-25T12:29:53;33.60;26.30
42973;DHT22;28610;51.214;6.962;2022-08-25T12:32:58;33.40;26.90
42973;DHT22;28610;51.214;6.962;2022-08-25T12:35:55;33.40;26.60
42973;DHT22;28610;51.214;6.962;2022-08-25T12:38:44;33.30;26.50
42973;DHT22;28610;51.214;6.962;2022-08-25T12:41:31;33.40;26.50
42973;DHT22;28610;51.214;6.962;2022-08-25T12:44:34;33.60;26.80
42973;DHT22;28610;51.214;6.962;2022-08-25T12:47:29;33.60;26.10
42973;DHT22;28610;51.214;6.962;2022-08-25T12:50:36;33.50;26.10
42973;DHT22;28610;51.214;6.962;2022-08-25T12:53:29;33.50;26.00
42973;DHT22;28610;51.214;6.962;2022-08-25T12:56:25;33.40;25.90
42973;DHT22;28610;51.214;6.962;2022-08-25T12:59:16;33.00;26.00
42973;DHT22;28610;51.214;6.962;2022-08-25T13:02:30;33.20;26.00
42973;DHT22;28610;51.214;6.962;2022-08-25T13:05:39;33.30;26.50
42973;DHT22;28610;51.214;6.962;2022-08-25T13:08:45;33.50;26.50
42973;DHT22;28610;51.214;6.962;2022-08-25T13:11:36;33.50;26.30
42973;DHT22;28610;51.214;6.962;2022-08-25T13:14:32;33.60;26.80
42973;DHT22;28610;51.214;6.962;2022-08-25T13:17:25;33.50;25.60
42973;DHT22;28610;51.214;6.962;2022-08-25T13:20:16;33.50;26.10
42973;DHT22;28610;51.214;6.962;2022-08-25T13:23:01;33.00;26.20
42973;DHT22;28610;51.214;6.962;2022-08-25T13:25:48;33.20;26.50
42973;DHT22;28610;51.214;6.962;2022-08-25T13:28:37;33.30;26.00
42973;DHT22;28610;51.214;6.962;2022-08-25T13:31:26;33.30;26.10
42973;DHT22;28610;51.214;6.962;2022-08-25T13:34:17;33.40;26.70
42973;DHT22;28610;51.214;6.962;2022-08-25T13:37:07;33.50;26.20
42973;DHT22;28610;51.214;6.962;2022-08-25T13:40:12;33.20;25.70
42973;DHT22;28610;51.214;6.962;2022-08-25T13:43:00;33.00;25.40
42973;DHT22;28610;51.214;6.962;2022-08-25T13:45:47;33.10;26.50
42973;DHT22;28610;51.214;6.962;2022-08-25T13:48:36;33.30;26.50
42973;DHT22;28610;51.214;6.962;2022-08-25T13:51:25;33.40;26.50
42973;DHT22;28610;51.214;6.962;2022-08-25T13:54:24;33.40;26.20
42973;DHT22;28610;51.214;6.962;2022-08-25T13:57:13;33.70;25.90
42973;DHT22;28610;51.214;6.962;2022-08-25T14:00:04;33.50;25.60
42973;DHT22;28610;51.214;6.962;2022-08-25T14:02:51;33.60;25.60
42973;DHT22;28610;51.214;6.962;2022-08-25T14:05:40;33.50;25.20
42973;DHT22;28610;51.214;6.962;2022-08-25T14:08:30;33.30;25.50
42973;DHT22;28610;51.214;6.962;2022-08-25T14:11:31;33.20;25.00
42973;DHT22;28610;51.214;6.962;2022-08-25T14:14:31;33.00;25.00
42973;DHT22;28610;51.214;6.962;2022-08-25T14:17:18;33.20;25.20
42973;DHT22;28610;51.214;6.962;2022-08-25T14:20:04;33.00;24.80
42973;DHT22;28610;51.214;6.962;2022-08-25T14:22:54;33.00;24.60
42973;DHT22;28610;51.214;6.962;2022-08-25T14:25:40;32.80;25.00
42973;DHT22;28610;51.214;6.962;2022-08-25T14:28:27;32.90;25.00
42973;DHT22;28610;51.214;6.962;2022-08-25T14:31:15;32.80;24.40
42973;DHT22;28610;51.214;6.962;2022-08-25T14:34:04;32.80;25.00
42973;DHT22;28610;51.214;6.962;2022-08-25T14:36:51;33.00;24.70
42973;DHT22;28610;51.214;6.962;2022-08-25T14:39:38;33.30;24.90
42973;DHT22;28610;51.214;6.962;2022-08-25T14:42:24;33.50;24.70
42973;DHT22;28610;51.214;6.962;2022-08-25T14:45:09;33.60;24.40
42973;DHT22;28610;51.214;6.962;2022-08-25T14:47:57;33.50;24.40
42973;DHT22;28610;51.214;6.962;2022-08-25T14:50:46;33.50;24.50
42973;DHT22;28610;51.214;6.962;2022-08-25T14:53:32;33.40;24.30
42973;DHT22;28610;51.214;6.962;2022-08-25T14:56:19;33.30;24.30
42973;DHT22;28610;51.214;6.962;2022-08-25T14:59:04;33.30;24.60
42973;DHT22;28610;51.214;6.962;2022-08-25T15:01:50;33.10;24.10
42973;DHT22;28610;51.214;6.962;2022-08-25T15:04:36;33.00;24.60
42973;DHT22;28610;51.214;6.962;2022-08-25T15:07:22;33.00;24.60
42973;DHT22;28610;51.214;6.962;2022-08-25T15:10:25;33.10;24.70
42973;DHT22;28610;51.214;6.962;2022-08-25T15:13:12;33.10;24.40
42973;DHT22;28610;51.214;6.962;2022-08-25T15:15:58;33.10;24.50
42973;DHT22;28610;51.214;6.962;2022-08-25T15:18:43;33.00;24.70
42973;DHT22;28610;51.214;6.962;2022-08-25T15:21:29;33.00;24.50
42973;DHT22;28610;51.214;6.962;2022-08-25T15:24:15;33.10;24.60
42973;DHT22;28610;51.214;6.962;2022-08-25T15:27:03;33.10;24.80
42973;DHT22;28610;51.214;6.962;2022-08-25T15:29:51;33.20;24.50
42973;DHT22;28610;51.214;6.962;2022-08-25T15:32:36;33.20;24.20
42973;DHT22;28610;51.214;6.962;2022-08-25T15:35:22;33.10;24.50
42973;DHT22;28610;51.214;6.962;2022-08-25T15:38:07;33.00;24.50
42973;DHT22;28610;51.214;6.962;2022-08-25T15:40:52;33.00;25.10
42973;DHT22;28610;51.214;6.962;2022-08-25T15:43:39;33.10;25.30
42973;DHT22;28610;51.214;6.962;2022-08-25T15:46:28;33.10;25.20
42973;DHT22;28610;51.214;6.962;2022-08-25T15:49:14;32.80;24.50
42973;DHT22;28610;51.214;6.962;2022-08-25T15:51:59;32.50;24.40
42973;DHT22;28610;51.214;6.962;2022-08-25T15:54:45;32.40;24.70
42973;DHT22;28610;51.214;6.962;2022-08-25T15:57:30;32.30;25.50
42973;DHT22;28610;51.214;6.962;2022-08-25T16:00:17;32.30;25.20
42973;DHT22;28610;51.214;6.962;2022-08-25T16:03:03;32.30;25.10
42973;DHT22;28610;51.214;6.962;2022-08-25T16:05:49;32.10;25.50
42973;DHT22;28610;51.214;6.962;2022-08-25T16:08:35;32.40;25.40
42973;DHT22;28610;51.214;6.962;2022-08-25T16:11:23;32.40;25.50
42973;DHT22;28610;51.214;6.962;2022-08-25T16:14:09;32.40;25.80
42973;DHT22;28610;51.214;6.962;2022-08-25T16:16:55;32.50;25.30
42973;DHT22;28610;51.214;6.962;2022-08-25T16:19:42;32.50;25.70
42973;DHT22;28610;51.214;6.962;2022-08-25T16:22:27;32.60;25.60
42973;DHT22;28610;51.214;6.962;2022-08-25T16:25:14;32.50;24.90
42973;DHT22;28610;51.214;6.962;2022-08-25T16:27:59;32.50;25.00
42973;DHT22;28610;51.214;6.962;2022-08-25T16:30:45;32.30;24.30
42973;DHT22;28610;51.214;6.962;2022-08-25T16:33:31;32.20;25.10
42973;DHT22;28610;51.214;6.962;2022-08-25T16:36:21;32.30;25.10
42973;DHT22;28610;51.214;6.962;2022-08-25T16:39:07;32.10;24.80
42973;DHT22;28610;51.214;6.962;2022-08-25T16:41:54;32.10;24.40
42973;DHT22;28610;51.214;6.962;2022-08-25T16:44:40;32.10;24.80
42973;DHT22;28610;51.214;6.962;2022-08-25T16:47:25;32.00;24.90
42973;DHT22;28610;51.214;6.962;2022-08-25T16:50:11;32.00;25.20
42973;DHT22;28610;51.214;6.962;2022-08-25T16:52:58;31.90;25.00
42973;DHT22;28610;51.214;6.962;2022-08-25T16:56:01;31.80;24.70
42973;DHT22;28610;51.214;6.962;2022-08-25T16:58:47;31.80;25.60
42973;DHT22;28610;51.214;6.962;2022-08-25T17:01:33;31.70;25.80
42973;DHT22;28610;51.214;6.962;2022-08-25T17:04:18;31.50;26.00
42973;DHT22;28610;51.214;6.962;2022-08-25T17:07:04;31.50;26.00
42973;DHT22;28610;51.214;6.962;2022-08-25T17:09:51;31.50;26.20
42973;DHT22;28610;51.214;6.962;2022-08-25T17:12:37;31.50;26.60
42973;DHT22;28610;51.214;6.962;2022-08-25T17:15:23;31.40;25.70
42973;DHT22;28610;51.214;6.962;2022-08-25T17:18:09;31.30;25.90
42973;DHT22;28610;51.214;6.962;2022-08-25T17:20:59;31.30;25.60
42973;DHT22;28610;51.214;6.962;2022-08-25T17:23:45;31.30;26.70
42973;DHT22;28610;51.214;6.962;2022-08-25T17:26:32;31.20;26.70
42973;DHT22;28610;51.214;6.962;2022-08-25T17:29:18;31.10;27.60
42973;DHT22;28610;51.214;6.962;2022-08-25T17:32:04;31.00;28.30
42973;DHT22;28610;51.214;6.962;2022-08-25T17:34:49;31.00;27.90
42973;DHT22;28610;51.214;6.962;2022-08-25T17:37:35;31.00;28.40
42973;DHT22;28610;51.214;6.962;2022-08-25T17:40:21;30.80;28.30
42973;DHT22;28610;51.214;6.962;2022-08-25T17:43:08;30.70;27.80
42973;DHT22;28610;51.214;6.962;2022-08-25T17:45:54;30.70;28.70
42973;DHT22;28610;51.214;6.962;2022-08-25T17:48:40;30.70;29.10
42973;DHT22;28610;51.214;6.962;2022-08-25T17:51:25;30.60;30.00
42973;DHT22;28610;51.214;6.962;2022-08-25T17:54:11;30.50;29.70
42973;DHT22;28610;51.214;6.962;2022-08-25T17:56:57;30.40;30.00